Time;durP1;ratioP1;P1;durP2;ratioP2;P2;SDS_P1;SDS_P2;PMS_P1;PMS_P2;Temp;Humidity;BMP_temperature;BMP_pressure;BME280_temperature;BME280_humidity;BME280_pressure;Samples;Min_cycle;Max_cycle;Signal;HPM_P1;HPM_P2
2023/02/17 00:01:21;;;;;;;66.28;38.78;;;4.60;99.90;;;;;;4932483;29;20047;-69
2023/02/17 00:03:50;;;;;;;91.53;51.53;;;4.10;99.90;;;;;;4932730;29;20034;-71
2023/02/17 00:06:21;;;;;;;109.90;58.92;;;4.20;99.90;;;;;;4954630;29;20047;-70
2023/02/17 00:08:49;;;;;;;138.70;71.15;;;4.20;99.90;;;;;;4937783;29;20399;-69
2023/02/17 00:11:16;;;;;;;146.60;78.30;;;4.10;99.90;;;;;;4937822;29;20047;-71
2023/02/17 00:13:44;;;;;;;156.60;84.43;;;4.00;99.90;;;;;;4946180;29;20063;-70
2023/02/17 00:16:18;;;;;;;168.82;93.15;;;3.80;99.90;;;;;;4954554;28;20043;-69
2023/02/17 00:18:46;;;;;;;162.07;91.78;;;3.90;99.90;;;;;;4937648;29;20035;-69
2023/02/17 00:21:19;;;;;;;178.15;96.00;;;4.10;99.90;;;;;;4951766;29;20043;-69
2023/02/17 00:23:47;;;;;;;164.32;91.22;;;4.10;99.90;;;;;;4954414;28;20035;-69
2023/02/17 00:26:16;;;;;;;164.63;88.95;;;4.00;99.90;;;;;;4953346;29;20050;-67
2023/02/17 00:28:44;;;;;;;169.18;88.50;;;3.80;99.90;;;;;;4954796;28;20031;-69
2023/02/17 00:31:21;;;;;;;137.80;77.18;;;3.80;99.90;;;;;;4954380;28;20398;-69
2023/02/17 00:33:58;;;;;;;131.00;71.60;;;3.70;99.90;;;;;;4937550;29;20070;-67
2023/02/17 00:36:26;;;;;;;144.75;72.22;;;3.80;99.90;;;;;;4951673;29;20043;-69
2023/02/17 00:38:55;;;;;;;125.90;69.72;;;3.80;99.90;;;;;;4953043;29;20439;-71
2023/02/17 00:41:24;;;;;;;126.00;68.18;;;3.80;99.90;;;;;;4953102;29;20039;-68
2023/02/17 00:43:52;;;;;;;122.38;68.82;;;3.80;99.90;;;;;;4953831;29;20474;-68
2023/02/17 00:46:20;;;;;;;129.50;71.15;;;3.80;99.90;;;;;;4953182;29;20102;-69
2023/02/17 00:48:48;;;;;;;128.80;68.90;;;3.80;99.90;;;;;;4936839;29;20047;-68
2023/02/17 00:51:16;;;;;;;132.25;69.35;;;3.80;99.90;;;;;;4953983;28;20039;-68
2023/02/17 00:53:44;;;;;;;132.05;72.35;;;3.70;99.90;;;;;;4953722;29;20122;-65
2023/02/17 00:56:12;;;;;;;134.82;69.18;;;3.70;99.90;;;;;;4953701;28;20387;-66
2023/02/17 00:58:40;;;;;;;123.93;69.20;;;3.80;99.90;;;;;;4953991;28;20031;-66
2023/02/17 01:01:09;;;;;;;129.85;69.13;;;3.80;99.90;;;;;;4953853;28;20035;-67
2023/02/17 01:03:36;;;;;;;129.50;67.30;;;3.60;99.90;;;;;;4953503;28;20043;-69
2023/02/17 01:06:25;;;;;;;125.53;66.47;;;3.60;99.90;;;;;;4945525;29;20490;-68
2023/02/17 01:08:53;;;;;;;123.90;63.92;;;3.70;99.90;;;;;;4953365;28;20047;-69
2023/02/17 01:11:26;;;;;;;136.02;68.85;;;3.60;99.90;;;;;;4952759;29;20039;-68
2023/02/17 01:13:54;;;;;;;124.47;68.85;;;3.70;99.90;;;;;;4951811;29;20047;-68
2023/02/17 01:16:25;;;;;;;128.98;67.40;;;3.70;99.90;;;;;;4953911;28;20036;-68
2023/02/17 01:18:53;;;;;;;112.35;62.38;;;3.50;99.90;;;;;;4952478;29;20106;-67
2023/02/17 01:21:26;;;;;;;102.28;57.00;;;3.30;99.90;;;;;;4953313;28;20043;-69
2023/02/17 01:23:56;;;;;;;95.10;52.65;;;3.40;99.90;;;;;;4935883;29;20074;-68
2023/02/17 01:26:25;;;;;;;98.10;51.97;;;3.50;99.90;;;;;;4951982;29;20131;-68
2023/02/17 01:28:53;;;;;;;94.50;51.63;;;3.20;99.90;;;;;;4951974;28;20035;-69
2023/02/17 01:31:21;;;;;;;93.40;51.65;;;3.20;99.90;;;;;;4952742;28;20283;-68
2023/02/17 01:33:49;;;;;;;107.47;55.15;;;3.30;99.90;;;;;;4952371;29;20105;-69
2023/02/17 01:36:18;;;;;;;103.68;55.67;;;3.40;99.90;;;;;;4951639;29;20039;-68
2023/02/17 01:38:45;;;;;;;102.30;54.97;;;3.60;99.90;;;;;;4936514;29;20047;-69
2023/02/17 01:41:15;;;;;;;100.60;54.83;;;3.60;99.90;;;;;;4951689;29;20045;-69
2023/02/17 01:43:42;;;;;;;102.50;54.10;;;3.70;99.90;;;;;;4953205;28;20375;-70
2023/02/17 01:46:10;;;;;;;102.72;55.20;;;3.50;99.90;;;;;;4952941;28;20035;-69
2023/02/17 01:48:40;;;;;;;105.85;54.63;;;3.40;99.90;;;;;;4951398;29;20472;-68
2023/02/17 01:51:09;;;;;;;91.53;51.53;;;3.50;99.90;;;;;;4952986;28;20384;-69
2023/02/17 01:53:41;;;;;;;85.65;49.03;;;3.60;99.90;;;;;;4951305;29;20043;-69
2023/02/17 01:56:10;;;;;;;99.63;51.38;;;3.60;99.90;;;;;;4950789;29;20097;-68
2023/02/17 01:58:42;;;;;;;93.90;53.47;;;3.50;99.90;;;;;;4952061;29;20035;-69
2023/02/17 02:01:09;;;;;;;97.65;53.17;;;3.30;99.90;;;;;;4947217;29;20804;-67
2023/02/17 02:03:38;;;;;;;93.60;50.55;;;3.40;99.90;;;;;;4953083;29;20523;-68
2023/02/17 02:06:10;;;;;;;91.22;48.47;;;3.60;99.90;;;;;;4951395;29;20041;-67
2023/02/17 02:08:47;;;;;;;87.43;51.13;;;3.50;99.90;;;;;;4952479;28;20066;-69
2023/02/17 02:11:14;;;;;;;95.30;49.95;;;3.50;99.90;;;;;;4952484;29;20042;-68
2023/02/17 02:13:42;;;;;;;95.70;48.50;;;3.40;99.90;;;;;;4952192;28;20427;-68
2023/02/17 02:16:26;;;;;;;90.90;49.92;;;3.10;99.90;;;;;;4935612;29;20039;-68
2023/02/17 02:19:05;;;;;;;87.05;47.88;;;3.00;99.90;;;;;;4935642;29;20054;-68
2023/02/17 02:21:53;;;;;;;90.60;47.20;;;3.10;99.90;;;;;;4917078;29;20063;-68
2023/02/17 02:24:27;;;;;;;85.40;45.70;;;3.00;99.90;;;;;;4952514;29;20384;-68
2023/02/17 02:26:57;;;;;;;86.90;44.92;;;2.80;99.90;;;;;;4935411;29;20038;-67
2023/02/17 02:30:12;;;;;;;80.72;43.00;;;2.80;99.90;;;;;;4952542;29;20043;-68
2023/02/17 02:32:47;;;;;;;86.25;45.08;;;3.00;99.90;;;;;;4856430;29;20049;-68
2023/02/17 02:35:33;;;;;;;85.20;46.53;;;2.40;99.90;;;;;;4858829;29;20104;-67
2023/02/17 02:38:15;;;;;;;80.40;45.90;;;2.40;99.90;;;;;;4910317;29;20399;-68
2023/02/17 02:40:49;;;;;;;82.72;44.00;;;2.60;99.90;;;;;;4952603;28;20039;-68
2023/02/17 02:43:17;;;;;;;84.63;45.15;;;2.80;99.90;;;;;;4939199;29;20047;-68
2023/02/17 02:45:44;;;;;;;80.82;45.28;;;2.70;99.90;;;;;;4956471;29;20035;-67
2023/02/17 02:48:11;;;;;;;84.60;45.15;;;2.70;99.90;;;;;;4955876;29;20468;-67
2023/02/17 02:51:04;;;;;;;86.18;49.05;;;2.80;99.90;;;;;;4955936;29;20287;-69
2023/02/17 02:54:09;;;;;;;80.07;45.60;;;2.70;99.90;;;;;;4955631;29;20035;-67
2023/02/17 02:56:48;;;;;;;88.85;45.03;;;2.70;99.90;;;;;;4937753;28;20047;-68
2023/02/17 02:59:43;;;;;;;82.30;42.70;;;2.80;99.90;;;;;;4938795;29;20043;-66
2023/02/17 03:02:34;;;;;;;76.07;40.35;;;2.40;99.90;;;;;;4955468;29;20390;-67
2023/02/17 03:05:08;;;;;;;70.20;39.08;;;2.20;99.90;;;;;;4926357;29;20039;-68
2023/02/17 03:07:41;;;;;;;68.05;38.70;;;2.30;99.90;;;;;;4923336;29;20069;-68
2023/02/17 03:10:08;;;;;;;63.30;36.85;;;2.40;99.90;;;;;;4919883;29;20036;-66
2023/02/17 03:12:37;;;;;;;63.53;36.00;;;2.40;99.90;;;;;;4955732;28;20035;-67
2023/02/17 03:15:14;;;;;;;55.72;33.08;;;2.50;99.90;;;;;;4950029;29;20451;-66
2023/02/17 03:17:41;;;;;;;56.53;31.10;;;2.60;99.90;;;;;;4955834;29;20043;-67
2023/02/17 03:20:11;;;;;;;57.97;31.65;;;2.40;99.90;;;;;;4955452;29;20070;-66
2023/02/17 03:22:42;;;;;;;50.87;31.33;;;2.50;99.90;;;;;;4955395;29;20046;-67
2023/02/17 03:25:10;;;;;;;53.67;30.48;;;2.50;99.90;;;;;;4938571;29;20360;-67
2023/02/17 03:27:37;;;;;;;51.80;30.40;;;2.30;99.90;;;;;;4955395;29;20476;-67
2023/02/17 03:30:05;;;;;;;49.90;30.35;;;2.30;99.90;;;;;;4938010;29;20061;-67
2023/02/17 03:32:33;;;;;;;55.63;29.52;;;2.10;99.90;;;;;;4938345;29;20514;-67
2023/02/17 03:35:00;;;;;;;52.60;30.75;;;2.10;99.90;;;;;;4922311;29;20391;-70
2023/02/17 03:37:27;;;;;;;62.97;32.63;;;2.20;99.90;;;;;;4938352;29;20050;-69
2023/02/17 03:39:55;;;;;;;56.78;32.03;;;1.80;99.90;;;;;;4955071;29;20035;-69
2023/02/17 03:42:22;;;;;;;57.00;31.77;;;1.70;99.90;;;;;;4955030;29;20171;-69
2023/02/17 03:44:50;;;;;;;53.88;29.27;;;1.90;99.90;;;;;;4955124;29;20035;-69
2023/02/17 03:47:17;;;;;;;47.15;29.35;;;2.20;99.90;;;;;;4938259;29;20042;-70
2023/02/17 03:49:44;;;;;;;51.92;30.98;;;2.20;99.90;;;;;;4954838;29;20032;-69
2023/02/17 03:52:12;;;;;;;57.63;30.65;;;2.20;99.90;;;;;;4925871;29;20090;-68
2023/02/17 03:54:39;;;;;;;53.05;30.92;;;2.30;99.90;;;;;;4954856;29;20383;-68
2023/02/17 03:57:06;;;;;;;54.88;32.63;;;2.40;99.90;;;;;;4954917;29;20375;-69
2023/02/17 03:59:33;;;;;;;55.25;31.17;;;2.40;99.90;;;;;;4921975;29;20043;-68
2023/02/17 04:02:01;;;;;;;55.00;31.45;;;2.40;99.90;;;;;;4955001;29;20038;-68
2023/02/17 04:04:28;;;;;;;58.85;31.35;;;2.50;99.90;;;;;;4938072;29;20058;-68
2023/02/17 04:06:59;;;;;;;54.80;33.10;;;2.20;99.90;;;;;;4937956;29;20356;-69
2023/02/17 04:09:26;;;;;;;57.10;31.10;;;2.30;99.90;;;;;;4954806;29;20046;-69
2023/02/17 04:11:53;;;;;;;58.20;33.22;;;2.20;99.90;;;;;;4919581;29;20036;-69
2023/02/17 04:14:21;;;;;;;49.72;30.65;;;2.30;99.90;;;;;;4935036;29;20443;-69
2023/02/17 04:16:48;;;;;;;54.88;32.88;;;2.20;99.90;;;;;;4952778;28;20046;-69
2023/02/17 04:19:16;;;;;;;55.85;32.13;;;2.10;99.90;;;;;;4956395;28;20049;-69
2023/02/17 04:21:45;;;;;;;52.92;32.25;;;2.20;99.90;;;;;;4973715;28;20043;-69
2023/02/17 04:24:12;;;;;;;59.42;32.60;;;2.00;99.90;;;;;;4956884;28;20051;-69
2023/02/17 04:26:40;;;;;;;60.47;33.75;;;2.00;99.90;;;;;;4956600;28;20030;-68
2023/02/17 04:29:07;;;;;;;56.42;32.38;;;2.20;99.90;;;;;;4973619;28;20039;-69
2023/02/17 04:31:34;;;;;;;63.53;32.58;;;2.20;99.90;;;;;;4973284;28;20640;-69
2023/02/17 04:34:02;;;;;;;55.30;30.38;;;2.20;99.90;;;;;;4973532;28;20039;-67
2023/02/17 04:36:29;;;;;;;56.33;31.50;;;2.00;99.90;;;;;;4973505;28;20117;-69
2023/02/17 04:38:56;;;;;;;55.08;30.13;;;2.10;99.90;;;;;;4973240;28;20035;-69
2023/02/17 04:41:23;;;;;;;51.53;31.25;;;2.20;99.90;;;;;;4973377;28;20046;-69
2023/02/17 04:43:51;;;;;;;50.55;29.05;;;2.20;99.90;;;;;;4973379;28;20031;-69
2023/02/17 04:46:20;;;;;;;50.90;30.30;;;2.20;99.90;;;;;;4973450;28;20027;-69
2023/02/17 04:48:49;;;;;;;54.55;30.15;;;2.20;99.90;;;;;;4956287;28;20230;-70
2023/02/17 04:51:17;;;;;;;53.42;30.00;;;2.40;99.90;;;;;;4956041;28;20503;-69
2023/02/17 04:53:44;;;;;;;50.22;28.48;;;2.30;99.90;;;;;;4955686;28;20062;-69
2023/02/17 04:56:15;;;;;;;50.55;31.02;;;2.00;99.90;;;;;;4972891;28;20034;-69
2023/02/17 04:58:46;;;;;;;53.97;29.77;;;2.00;99.90;;;;;;4945785;28;20043;-69
2023/02/17 05:01:14;;;;;;;58.15;31.92;;;2.00;99.90;;;;;;4973095;28;20382;-69
2023/02/17 05:03:41;;;;;;;54.35;30.98;;;2.00;99.90;;;;;;4956235;28;20102;-70
2023/02/17 05:06:08;;;;;;;58.45;29.63;;;2.00;99.90;;;;;;4960181;28;20034;-68
2023/02/17 05:08:36;;;;;;;48.47;29.38;;;2.10;99.90;;;;;;4973107;28;20122;-69
2023/02/17 05:11:03;;;;;;;55.03;29.30;;;1.80;99.90;;;;;;4960867;28;20038;-69
2023/02/17 05:13:32;;;;;;;45.25;27.48;;;1.80;99.90;;;;;;4956298;28;20084;-68
2023/02/17 05:15:59;;;;;;;53.38;29.05;;;2.00;99.90;;;;;;4955659;28;20038;-69
2023/02/17 05:18:26;;;;;;;47.55;28.48;;;1.90;99.90;;;;;;4972832;28;20042;-68
2023/02/17 05:20:53;;;;;;;55.97;30.48;;;2.00;99.90;;;;;;4972784;28;20464;-67
2023/02/17 05:23:21;;;;;;;51.08;31.15;;;1.90;99.90;;;;;;4955265;28;20445;-69
2023/02/17 05:25:48;;;;;;;58.40;29.85;;;1.80;99.90;;;;;;4972625;28;20051;-69
2023/02/17 05:28:16;;;;;;;61.28;33.03;;;1.90;99.90;;;;;;4972613;28;20042;-70
2023/02/17 05:30:43;;;;;;;57.13;32.20;;;2.20;99.90;;;;;;4955226;28;20057;-69
2023/02/17 05:33:10;;;;;;;51.90;31.83;;;2.30;99.90;;;;;;4955531;28;20046;-69
2023/02/17 05:35:37;;;;;;;59.80;33.13;;;2.40;99.90;;;;;;4972503;28;20034;-68
2023/02/17 05:38:05;;;;;;;64.18;33.92;;;2.40;99.90;;;;;;4936135;29;20043;-70
2023/02/17 05:40:32;;;;;;;68.15;34.47;;;2.30;99.90;;;;;;4969997;28;20038;-69
2023/02/17 05:43:00;;;;;;;59.05;32.65;;;2.40;99.90;;;;;;4972967;28;20046;-70
2023/02/17 05:45:27;;;;;;;58.00;31.77;;;2.30;99.90;;;;;;4971889;28;20410;-69
2023/02/17 05:47:55;;;;;;;55.58;32.50;;;2.30;99.90;;;;;;4955508;28;20046;-69
2023/02/17 05:50:22;;;;;;;52.60;31.70;;;2.30;99.90;;;;;;4972021;28;20031;-69
2023/02/17 05:52:49;;;;;;;54.60;33.55;;;2.20;99.90;;;;;;4935869;29;20054;-68
2023/02/17 05:55:17;;;;;;;143.20;75.63;;;2.20;99.90;;;;;;4969970;28;20354;-68
2023/02/17 05:57:44;;;;;;;76.05;42.50;;;2.30;99.90;;;;;;4970820;28;20356;-67
2023/02/17 06:00:12;;;;;;;158.45;78.53;;;2.20;99.90;;;;;;4954003;28;20038;-68
2023/02/17 06:02:39;;;;;;;174.05;85.80;;;2.10;99.90;;;;;;4969880;28;20034;-68
2023/02/17 06:05:07;;;;;;;214.23;102.78;;;2.40;99.90;;;;;;4971101;28;20117;-67
2023/02/17 06:07:34;;;;;;;86.18;48.40;;;2.50;99.90;;;;;;4971218;28;20114;-67
2023/02/17 06:10:02;;;;;;;143.38;69.57;;;2.60;99.90;;;;;;4954440;28;20109;-69
2023/02/17 06:12:29;;;;;;;57.80;35.15;;;2.60;99.90;;;;;;4952008;28;20049;-68
2023/02/17 06:14:57;;;;;;;55.88;31.25;;;2.40;99.90;;;;;;4919348;29;20121;-68
2023/02/17 06:17:25;;;;;;;48.70;29.92;;;2.10;99.90;;;;;;4950043;29;20043;-67
2023/02/17 06:19:52;;;;;;;54.65;29.95;;;2.10;99.90;;;;;;4952629;29;20114;-68
2023/02/17 06:22:23;;;;;;;47.22;29.40;;;2.10;99.90;;;;;;4913431;29;20384;-67
2023/02/17 06:24:51;;;;;;;54.30;33.22;;;2.40;99.90;;;;;;4919564;29;20039;-69
2023/02/17 06:27:18;;;;;;;60.38;33.20;;;2.60;99.90;;;;;;4952066;29;20357;-68
2023/02/17 06:29:45;;;;;;;65.82;33.90;;;2.60;99.90;;;;;;4952100;29;20130;-69
2023/02/17 06:32:13;;;;;;;61.28;37.30;;;2.70;99.90;;;;;;4932977;29;20484;-69
2023/02/17 06:34:40;;;;;;;75.00;39.53;;;2.70;99.90;;;;;;4935734;29;20039;-68
2023/02/17 06:37:08;;;;;;;63.15;37.17;;;2.70;99.90;;;;;;4935203;29;20055;-69
2023/02/17 06:39:35;;;;;;;66.40;38.13;;;2.90;99.90;;;;;;4935381;29;20046;-69
2023/02/17 06:42:02;;;;;;;63.00;38.08;;;2.90;99.90;;;;;;4935160;29;20407;-70
2023/02/17 06:44:30;;;;;;;71.45;39.75;;;2.90;99.90;;;;;;4951826;29;20051;-68
2023/02/17 06:46:58;;;;;;;73.90;40.65;;;2.70;99.90;;;;;;4951834;29;20391;-68
2023/02/17 06:49:25;;;;;;;101.68;55.95;;;2.60;99.90;;;;;;4951711;29;20098;-67
2023/02/17 06:51:52;;;;;;;70.43;42.30;;;2.90;99.90;;;;;;4931939;29;20046;-70
2023/02/17 06:54:20;;;;;;;129.35;63.53;;;2.60;99.90;;;;;;4934569;29;20051;-67
2023/02/17 06:56:47;;;;;;;71.70;44.17;;;2.90;99.90;;;;;;4934383;29;20035;-69
2023/02/17 06:59:14;;;;;;;72.82;39.53;;;2.70;99.90;;;;;;4934045;29;20405;-68
2023/02/17 07:01:41;;;;;;;65.72;39.55;;;2.70;99.90;;;;;;4950565;29;20444;-68
2023/02/17 07:04:09;;;;;;;66.75;38.63;;;2.60;99.90;;;;;;4950544;29;20387;-69
2023/02/17 07:06:36;;;;;;;72.38;37.13;;;2.60;99.90;;;;;;4933461;29;20031;-69
2023/02/17 07:09:04;;;;;;;61.15;37.78;;;2.50;99.90;;;;;;4950958;29;20365;-70
2023/02/17 07:11:31;;;;;;;62.30;38.95;;;2.80;99.90;;;;;;4950595;29;20384;-67
2023/02/17 07:13:59;;;;;;;71.40;38.22;;;2.80;99.90;;;;;;4934567;29;20043;-69
2023/02/17 07:16:26;;;;;;;74.53;38.67;;;3.00;99.90;;;;;;4935486;29;20074;-68
2023/02/17 07:18:53;;;;;;;68.40;39.35;;;3.20;99.90;;;;;;4952124;29;20043;-69
2023/02/17 07:21:20;;;;;;;61.40;36.05;;;3.50;99.90;;;;;;4952091;29;20068;-70
2023/02/17 07:23:48;;;;;;;69.10;38.40;;;3.90;99.90;;;;;;4951229;29;20047;-70
2023/02/17 07:26:15;;;;;;;62.08;37.53;;;4.20;99.90;;;;;;4952184;29;20050;-69
2023/02/17 07:28:43;;;;;;;63.17;38.42;;;4.30;99.90;;;;;;4936486;29;20039;-69
2023/02/17 07:31:13;;;;;;;62.25;37.92;;;4.50;99.90;;;;;;4938526;29;20047;-67
2023/02/17 07:33:41;;;;;;;62.72;37.10;;;4.40;99.90;;;;;;4951068;29;20118;-68
2023/02/17 07:36:11;;;;;;;64.55;38.40;;;4.50;99.90;;;;;;4955418;29;20043;-69
2023/02/17 07:38:39;;;;;;;71.93;39.73;;;4.70;99.90;;;;;;4954777;29;20122;-69
2023/02/17 07:41:15;;;;;;;61.40;39.33;;;4.60;99.90;;;;;;4938704;29;20685;-68
2023/02/17 07:43:44;;;;;;;64.45;38.70;;;4.70;99.90;;;;;;4937774;29;20439;-69
2023/02/17 07:46:12;;;;;;;64.78;39.15;;;4.80;99.90;;;;;;4955474;29;20489;-69
2023/02/17 07:48:40;;;;;;;64.95;39.03;;;4.90;99.90;;;;;;4937589;29;20106;-68
2023/02/17 07:51:10;;;;;;;63.03;37.50;;;4.90;99.90;;;;;;4938636;29;20039;-69
2023/02/17 07:53:38;;;;;;;65.18;40.00;;;4.80;99.90;;;;;;4954679;29;20502;-69
2023/02/17 07:56:08;;;;;;;76.70;40.15;;;4.90;99.90;;;;;;4955080;29;20047;-69
2023/02/17 07:58:37;;;;;;;69.85;40.17;;;4.90;99.90;;;;;;4955468;29;20039;-69
2023/02/17 08:01:10;;;;;;;69.70;39.78;;;4.90;99.90;;;;;;4954210;29;20076;-66
2023/02/17 08:03:38;;;;;;;70.70;41.47;;;5.10;99.90;;;;;;4953993;29;20034;-69
2023/02/17 08:06:13;;;;;;;78.38;43.03;;;5.10;99.90;;;;;;4937022;29;20034;-68
2023/02/17 08:14:16;;;;;;;69.00;40.85;;;5.20;99.90;;;;;;4949052;29;20039;-70
2023/02/17 08:16:44;;;;;;;71.53;41.42;;;5.20;99.90;;;;;;4954293;28;20390;-69
2023/02/17 08:19:11;;;;;;;81.93;47.25;;;5.20;99.90;;;;;;4952617;29;20071;-68
2023/02/17 08:21:38;;;;;;;70.03;43.10;;;5.50;99.90;;;;;;4952442;29;20047;-68
2023/02/17 08:24:06;;;;;;;71.13;42.10;;;5.50;99.90;;;;;;4953350;28;20400;-68
2023/02/17 08:26:33;;;;;;;67.57;40.40;;;5.60;99.90;;;;;;4953619;28;20047;-70
2023/02/17 08:29:01;;;;;;;67.85;39.38;;;5.80;99.90;;;;;;4952633;29;20038;-67
2023/02/17 08:31:34;;;;;;;64.88;39.80;;;6.00;99.90;;;;;;4953063;29;20078;-68
2023/02/17 08:34:04;;;;;;;73.03;40.97;;;6.00;99.90;;;;;;4953276;28;20036;-67
2023/02/17 08:36:32;;;;;;;62.10;37.80;;;5.90;99.90;;;;;;4953540;28;20043;-70
2023/02/17 08:39:00;;;;;;;59.90;37.53;;;6.00;99.90;;;;;;4952544;28;20371;-66
2023/02/17 08:41:34;;;;;;;65.93;39.75;;;5.90;99.90;;;;;;4954174;28;20054;-67
2023/02/17 08:44:06;;;;;;;60.25;37.70;;;5.90;99.90;;;;;;4952505;29;20039;-68
2023/02/17 08:46:35;;;;;;;63.20;38.72;;;6.00;99.90;;;;;;4952421;29;20051;-68
2023/02/17 08:49:04;;;;;;;65.60;39.63;;;6.10;99.90;;;;;;4951783;29;20053;-68
2023/02/17 08:51:31;;;;;;;66.18;39.42;;;6.50;99.90;;;;;;4951486;29;20039;-69
2023/02/17 08:54:00;;;;;;;67.57;40.13;;;6.70;99.90;;;;;;4952659;28;20110;-69
2023/02/17 08:56:28;;;;;;;63.40;39.05;;;6.70;99.90;;;;;;4953516;28;20394;-69
2023/02/17 08:58:55;;;;;;;62.45;36.65;;;6.50;99.90;;;;;;4947797;29;20046;-67
2023/02/17 09:01:23;;;;;;;61.45;39.67;;;6.60;99.90;;;;;;4952717;28;20039;-69
2023/02/17 09:03:52;;;;;;;63.55;38.42;;;6.80;99.90;;;;;;4952766;28;20038;-69
2023/02/17 09:06:20;;;;;;;63.38;36.72;;;7.00;99.50;;;;;;4952599;28;20042;-68
2023/02/17 09:08:48;;;;;;;58.30;37.35;;;7.20;99.20;;;;;;4951569;29;20059;-69
2023/02/17 09:11:18;;;;;;;64.68;38.55;;;7.50;98.70;;;;;;4953209;28;20055;-69
2023/02/17 09:13:46;;;;;;;61.17;36.92;;;7.80;98.40;;;;;;4951350;29;20106;-67
2023/02/17 09:16:14;;;;;;;60.45;37.58;;;7.80;97.10;;;;;;4948145;29;20067;-68
2023/02/17 09:18:41;;;;;;;59.78;37.53;;;7.90;97.30;;;;;;4952731;28;20055;-67
2023/02/17 09:21:11;;;;;;;68.30;38.25;;;7.90;96.90;;;;;;4947484;28;20460;-68
2023/02/17 09:23:39;;;;;;;60.65;37.75;;;7.80;97.30;;;;;;4952273;28;20432;-67
2023/02/17 09:26:10;;;;;;;59.80;35.13;;;7.80;97.60;;;;;;4950240;28;20120;-69
2023/02/17 09:28:37;;;;;;;59.55;36.20;;;7.70;97.90;;;;;;4951199;29;20042;-69
2023/02/17 09:31:18;;;;;;;62.03;36.10;;;7.90;97.60;;;;;;4949245;28;20031;-68
2023/02/17 09:33:46;;;;;;;58.97;35.65;;;7.90;97.10;;;;;;4947727;29;20529;-69
2023/02/17 09:36:19;;;;;;;55.65;35.03;;;8.00;97.20;;;;;;4946921;28;20043;-67
2023/02/17 09:38:47;;;;;;;62.83;33.60;;;8.20;97.00;;;;;;4948690;29;20035;-67
2023/02/17 09:41:23;;;;;;;60.05;34.13;;;8.50;96.60;;;;;;4964787;28;20098;-67
2023/02/17 09:43:51;;;;;;;55.78;33.45;;;8.40;95.00;;;;;;4949418;29;20043;-68
2023/02/17 09:46:40;;;;;;;58.42;31.98;;;8.40;95.10;;;;;;4951298;29;20047;-66
2023/02/17 09:49:31;;;;;;;49.55;30.85;;;8.70;94.30;;;;;;4948651;29;20039;-70
2023/02/17 09:52:11;;;;;;;57.33;32.15;;;9.00;94.00;;;;;;4949997;28;20040;-69
2023/02/17 09:55:09;;;;;;;55.92;31.98;;;9.50;92.80;;;;;;4950162;29;20042;-67
2023/02/17 09:57:51;;;;;;;55.42;33.65;;;9.20;92.20;;;;;;4945286;29;20122;-69
2023/02/17 10:00:41;;;;;;;57.63;33.95;;;9.70;93.40;;;;;;4947399;29;20089;-68
2023/02/17 10:03:17;;;;;;;64.80;32.07;;;10.30;92.90;;;;;;4951629;29;20094;-69
2023/02/17 10:05:52;;;;;;;50.63;30.98;;;10.30;89.40;;;;;;4950433;29;20032;-69
2023/02/17 10:08:29;;;;;;;52.92;31.48;;;10.30;89.40;;;;;;4949125;29;20047;-69
2023/02/17 10:11:30;;;;;;;43.65;27.13;;;10.50;88.00;;;;;;4950916;29;20713;-68
2023/02/17 10:14:06;;;;;;;44.60;26.83;;;10.70;84.50;;;;;;4960241;28;20086;-68
2023/02/17 10:16:50;;;;;;;49.80;27.48;;;10.70;83.00;;;;;;4950015;29;20174;-67
2023/02/17 10:19:25;;;;;;;40.85;25.30;;;10.90;83.10;;;;;;4949109;29;20039;-69
2023/02/17 10:22:06;;;;;;;41.20;23.02;;;10.60;81.90;;;;;;4949620;29;20407;-68
2023/02/17 10:24:34;;;;;;;40.22;22.67;;;10.80;81.70;;;;;;4951082;28;20031;-68
2023/02/17 10:27:11;;;;;;;39.72;24.52;;;11.10;81.40;;;;;;4949278;29;20133;-69
2023/02/17 10:29:45;;;;;;;40.38;24.85;;;11.30;80.10;;;;;;4950259;29;20035;-67
2023/02/17 10:32:24;;;;;;;47.63;25.77;;;11.50;79.80;;;;;;4951278;29;20539;-70
2023/02/17 10:35:10;;;;;;;44.58;25.17;;;11.30;79.40;;;;;;4934932;29;20039;-70
2023/02/17 10:37:47;;;;;;;50.08;28.52;;;11.00;80.30;;;;;;4951096;29;20031;-68
2023/02/17 10:40:24;;;;;;;43.35;28.15;;;11.30;86.20;;;;;;4950561;29;20043;-68
2023/02/17 10:43:00;;;;;;;50.35;28.40;;;12.70;88.50;;;;;;4950963;29;20062;-70
2023/02/17 10:45:34;;;;;;;52.47;27.83;;;12.90;79.80;;;;;;4952299;28;20047;-70
2023/02/17 10:48:06;;;;;;;47.08;27.45;;;12.30;83.40;;;;;;4951514;28;20027;-67
2023/02/17 10:50:36;;;;;;;40.67;27.55;;;12.80;83.00;;;;;;4949221;29;20110;-69
2023/02/17 10:53:21;;;;;;;46.17;28.63;;;13.50;79.20;;;;;;4950756;29;20102;-70
2023/02/17 10:56:01;;;;;;;46.45;29.10;;;13.40;76.50;;;;;;4951988;28;20058;-70
2023/02/17 10:58:35;;;;;;;44.07;26.57;;;13.70;77.80;;;;;;4941148;29;20058;-71
2023/02/17 11:01:05;;;;;;;51.95;28.48;;;14.00;75.60;;;;;;4952175;29;20086;-71
2023/02/17 11:03:35;;;;;;;57.90;26.40;;;14.20;72.60;;;;;;4955038;28;20039;-70
2023/02/17 11:06:05;;;;;;;45.67;29.10;;;14.50;73.30;;;;;;4955835;28;20077;-70
2023/02/17 11:08:33;;;;;;;;;;;14.80;71.50;;;;;;4956225;29;20477;-72
2023/02/17 11:11:04;;;;;;;43.63;28.17;;;14.80;68.70;;;;;;4954063;29;20013;-69
2023/02/17 11:13:41;;;;;;;40.03;27.42;;;15.50;69.60;;;;;;4952538;29;20127;-72
2023/02/17 11:16:40;;;;;;;43.42;28.70;;;18.60;60.90;;;;;;4954214;28;20399;-71
2023/02/17 11:19:35;;;;;;;40.30;27.75;;;20.70;53.40;;;;;;4954167;28;20391;-71
2023/02/17 11:22:05;;;;;;;40.28;27.67;;;22.40;49.60;;;;;;4951747;29;20380;-71
2023/02/17 11:24:34;;;;;;;40.00;27.58;;;22.50;46.50;;;;;;4944408;29;20489;-71
2023/02/17 11:27:03;;;;;;;40.45;29.08;;;22.30;46.20;;;;;;4953263;28;20087;-71
2023/02/17 11:29:32;;;;;;;39.15;28.80;;;21.00;47.30;;;;;;4947224;29;20043;-69
2023/02/17 11:32:03;;;;;;;42.50;28.85;;;22.00;48.00;;;;;;4953329;28;20040;-71
2023/02/17 11:34:34;;;;;;;36.00;24.60;;;23.20;46.30;;;;;;4954129;28;20045;-71
2023/02/17 11:37:08;;;;;;;43.38;30.73;;;24.10;44.70;;;;;;4953517;29;20035;-70
2023/02/17 11:39:49;;;;;;;43.33;30.63;;;23.20;45.70;;;;;;4954754;29;20118;-69
2023/02/17 11:42:29;;;;;;;38.83;26.40;;;21.10;48.90;;;;;;4954454;29;20035;-68
2023/02/17 11:44:58;;;;;;;36.90;26.63;;;18.80;52.10;;;;;;4955158;29;20446;-69
2023/02/17 11:47:34;;;;;;;39.60;25.70;;;17.70;54.30;;;;;;4955564;28;20035;-67
2023/02/17 11:50:07;;;;;;;37.47;26.88;;;17.70;55.00;;;;;;4955335;28;21493;-69
2023/02/17 11:52:44;;;;;;;39.75;25.00;;;17.60;54.90;;;;;;4955524;29;20051;-69
2023/02/17 11:55:46;;;;;;;34.63;23.92;;;18.20;54.10;;;;;;4955148;29;20027;-68
2023/02/17 11:58:50;;;;;;;34.85;22.02;;;18.20;55.80;;;;;;4950464;29;20390;-67
2023/02/17 12:01:51;;;;;;;36.35;22.48;;;18.20;53.90;;;;;;4953876;29;20039;-65
2023/02/17 12:04:35;;;;;;;30.95;21.45;;;17.30;54.60;;;;;;4954239;29;20126;-69
2023/02/17 12:07:08;;;;;;;32.75;21.48;;;17.20;54.80;;;;;;4952818;29;20058;-67
2023/02/17 12:10:17;;;;;;;30.00;21.08;;;17.40;54.90;;;;;;4954322;29;20042;-67
2023/02/17 12:12:50;;;;;;;27.00;18.77;;;17.70;53.10;;;;;;4926202;28;20051;-68
2023/02/17 12:15:48;;;;;;;25.13;17.98;;;17.70;53.10;;;;;;4954426;29;20078;-69
2023/02/17 12:18:21;;;;;;;25.45;17.48;;;18.20;53.10;;;;;;4948650;29;20039;-69
2023/02/17 12:21:07;;;;;;;25.13;16.23;;;18.10;52.70;;;;;;4954625;29;20357;-69
2023/02/17 12:23:57;;;;;;;28.33;17.30;;;18.40;51.40;;;;;;4954322;29;20039;-70
2023/02/17 12:26:33;;;;;;;25.33;17.63;;;18.30;52.60;;;;;;4954178;29;20058;-66
2023/02/17 12:29:12;;;;;;;26.33;16.92;;;21.00;49.40;;;;;;4937317;29;20043;-67
2023/02/17 12:32:04;;;;;;;32.67;14.18;;;24.20;43.80;;;;;;4954352;29;20035;-67
2023/02/17 12:34:43;;;;;;;22.27;14.27;;;26.00;40.40;;;;;;4954443;29;20078;-69
2023/02/17 12:37:18;;;;;;;29.73;17.80;;;26.10;39.90;;;;;;4950836;29;20047;-68
2023/02/17 12:40:30;;;;;;;26.45;18.70;;;26.10;39.80;;;;;;4954575;29;20045;-68
2023/02/17 12:43:05;;;;;;;26.15;19.10;;;25.90;40.30;;;;;;4935879;29;20047;-68
2023/02/17 12:45:45;;;;;;;28.08;19.20;;;25.20;40.50;;;;;;4953865;29;20035;-69
2023/02/17 12:48:21;;;;;;;25.65;19.73;;;25.00;40.80;;;;;;4954056;29;20039;-68
2023/02/17 12:50:55;;;;;;;24.05;18.85;;;25.50;40.10;;;;;;4936914;29;20459;-67
2023/02/17 12:53:44;;;;;;;22.45;16.65;;;25.80;39.60;;;;;;4953788;29;20043;-68
2023/02/17 12:56:37;;;;;;;18.92;14.88;;;26.00;38.60;;;;;;4936909;29;20046;-67
2023/02/17 12:59:16;;;;;;;21.55;16.83;;;26.20;38.00;;;;;;4929312;29;20066;-69
2023/02/17 13:02:03;;;;;;;21.47;17.40;;;26.60;38.30;;;;;;4936826;29;20039;-70
2023/02/17 13:04:33;;;;;;;24.55;16.95;;;26.60;38.80;;;;;;4938346;29;20130;-70